Time;durP1;ratioP1;P1;durP2;ratioP2;P2;SDS_P1;SDS_P2;PMS_P1;PMS_P2;Temp;Humidity;BMP_temperature;BMP_pressure;BME280_temperature;BME280_humidity;BME280_pressure;Samples;Min_cycle;Max_cycle;Signal;HPM_P1;HPM_P2
2023/10/26 00:00:51;;;;;;;12.10;8.60;;;;;;;9.96;99.23;98444.02;131414;1254;106561;-77
2023/10/26 00:04:12;;;;;;;17.30;11.80;;;;;;;10.00;99.26;98439.64;131369;1251;108674;-77
2023/10/26 00:07:17;;;;;;;15.80;12.60;;;;;;;10.03;98.83;98439.08;131387;1248;108013;-76
2023/10/26 00:10:23;;;;;;;15.40;11.00;;;;;;;10.07;99.21;98438.80;131427;1251;107841;-77
2023/10/26 00:13:28;;;;;;;13.00;10.00;;;;;;;10.09;99.03;98438.09;131397;1253;107927;-76
2023/10/26 00:16:34;;;;;;;13.00;9.40;;;;;;;10.11;98.90;98434.51;131370;1253;107732;-77
2023/10/26 00:19:40;;;;;;;14.30;9.80;;;;;;;10.11;98.84;98431.17;131417;1251;107397;-78
2023/10/26 00:22:45;;;;;;;13.30;9.80;;;;;;;10.08;98.46;98421.43;131391;1251;108567;-77
2023/10/26 00:25:51;;;;;;;13.40;10.60;;;;;;;10.02;98.37;98418.62;131377;1251;107155;-79
2023/10/26 00:28:56;;;;;;;15.60;10.70;;;;;;;9.97;98.42;98417.84;131465;1248;109090;-77
2023/10/26 00:32:03;;;;;;;17.50;11.20;;;;;;;9.89;97.86;98418.80;131415;1251;108807;-76
2023/10/26 00:35:09;;;;;;;13.30;10.50;;;;;;;9.81;97.65;98415.07;131417;1253;107797;-76
2023/10/26 00:38:15;;;;;;;13.40;9.70;;;;;;;9.68;97.39;98415.65;131364;1251;107282;-77
2023/10/26 00:41:22;;;;;;;12.70;8.90;;;;;;;9.57;97.28;98416.14;131414;1247;108540;-77
2023/10/26 00:44:28;;;;;;;13.70;8.10;;;;;;;9.51;97.54;98412.73;131369;1262;108667;-76
2023/10/26 00:47:36;;;;;;;11.50;8.50;;;;;;;9.48;97.62;98416.35;131409;1253;108112;-76
2023/10/26 00:50:43;;;;;;;10.30;7.80;;;;;;;9.42;97.34;98415.48;131156;1251;108726;-76
2023/10/26 00:53:49;;;;;;;11.60;7.80;;;;;;;9.32;97.14;98415.79;131355;1248;107475;-76
2023/10/26 00:56:57;;;;;;;12.90;8.20;;;;;;;9.25;96.94;98411.75;131421;1251;109366;-77
2023/10/26 01:00:07;;;;;;;8.90;6.40;;;;;;;9.18;97.07;98410.62;131236;1247;108676;-76
2023/10/26 01:03:14;;;;;;;10.90;6.60;;;;;;;9.10;96.77;98416.27;131526;1254;108712;-76
2023/10/26 01:06:20;;;;;;;10.60;8.00;;;;;;;9.01;96.36;98412.74;131384;1253;108642;-77
2023/10/26 01:09:25;;;;;;;11.10;8.10;;;;;;;8.94;96.15;98412.99;131301;1254;108378;-76
2023/10/26 01:12:31;;;;;;;12.60;8.10;;;;;;;8.88;96.19;98411.42;131228;1248;106786;-76
2023/10/26 01:15:37;;;;;;;15.10;8.80;;;;;;;8.83;96.05;98405.91;131394;1253;107182;-76
2023/10/26 01:18:42;;;;;;;10.80;8.00;;;;;;;8.77;95.84;98404.66;131423;1248;106484;-76
2023/10/26 01:21:52;;;;;;;11.90;7.80;;;;;;;8.69;95.50;98407.09;131363;1253;107735;-76
2023/10/26 01:24:59;;;;;;;10.60;7.00;;;;;;;8.59;95.61;98407.48;131412;1248;106622;-77
2023/10/26 01:28:06;;;;;;;9.10;6.40;;;;;;;8.52;95.73;98403.25;131449;1251;107692;-76
2023/10/26 01:31:15;;;;;;;10.30;7.60;;;;;;;8.48;95.61;98398.20;131431;1248;108623;-76
2023/10/26 01:34:22;;;;;;;11.50;8.20;;;;;;;8.47;95.57;98393.90;131543;1250;107846;-76
2023/10/26 01:37:27;;;;;;;11.30;8.50;;;;;;;8.42;95.29;98396.41;131373;1252;108736;-77
2023/10/26 01:40:34;;;;;;;10.40;8.00;;;;;;;8.39;95.35;98397.09;131450;1251;106693;-76
2023/10/26 01:43:39;;;;;;;10.20;7.90;;;;;;;8.36;95.15;98399.45;131361;1251;107781;-76
2023/10/26 01:46:45;;;;;;;12.60;8.40;;;;;;;8.29;94.73;98399.29;131265;1252;107727;-76
2023/10/26 01:49:50;;;;;;;11.30;8.30;;;;;;;8.25;94.78;98398.50;131286;1251;108101;-78
2023/10/26 01:52:56;;;;;;;10.60;7.40;;;;;;;8.23;94.70;98399.94;131321;1248;108493;-77
2023/10/26 01:56:02;;;;;;;12.80;6.70;;;;;;;8.23;94.99;98394.62;131279;1253;107374;-76
2023/10/26 01:59:08;;;;;;;12.40;8.60;;;;;;;8.26;94.89;98393.89;131396;1248;107239;-77
2023/10/26 02:02:14;;;;;;;16.70;10.90;;;;;;;8.30;94.95;98389.64;131279;1253;108723;-76
2023/10/26 02:05:19;;;;;;;16.60;11.50;;;;;;;8.34;95.19;98383.20;131332;1253;107888;-76
2023/10/26 02:08:25;;;;;;;15.10;10.50;;;;;;;8.38;95.28;98374.55;131373;1251;107748;-76
2023/10/26 02:11:30;;;;;;;17.70;10.40;;;;;;;8.39;95.16;98373.16;131310;1251;107784;-76
2023/10/26 02:14:37;;;;;;;15.00;9.80;;;;;;;8.38;94.99;98372.33;131377;1251;106903;-76
2023/10/26 02:17:43;;;;;;;17.40;10.40;;;;;;;8.35;95.28;98375.13;131388;1251;106688;-76
2023/10/26 02:20:49;;;;;;;15.20;9.60;;;;;;;8.36;95.54;98369.73;131386;1253;107678;-76
2023/10/26 02:23:54;;;;;;;15.50;10.40;;;;;;;8.40;95.54;98370.61;131312;1249;106149;-77
2023/10/26 02:27:00;;;;;;;15.60;10.30;;;;;;;8.44;95.55;98368.98;131414;1247;108596;-76
2023/10/26 02:30:08;;;;;;;21.10;12.10;;;;;;;8.44;95.36;98365.70;131407;1251;107897;-75
2023/10/26 02:33:14;;;;;;;17.70;10.80;;;;;;;8.42;95.21;98369.48;131498;1251;108582;-75
2023/10/26 02:36:22;;;;;;;19.10;13.10;;;;;;;8.41;94.90;98363.02;131388;1251;106558;-74
2023/10/26 02:39:27;;;;;;;20.00;13.20;;;;;;;8.40;94.96;98360.73;131252;1253;108605;-73
2023/10/26 02:42:33;;;;;;;14.40;10.20;;;;;;;8.39;95.24;98357.30;131363;1248;107105;-73
2023/10/26 02:45:39;;;;;;;14.90;9.40;;;;;;;8.39;95.29;98363.60;131185;1253;108540;-73
2023/10/26 02:48:45;;;;;;;16.50;11.10;;;;;;;8.44;95.08;98359.86;131476;1251;107617;-72
2023/10/26 02:51:51;;;;;;;18.70;12.30;;;;;;;8.50;95.26;98360.05;131281;1250;107706;-73
2023/10/26 02:54:56;;;;;;;18.20;13.10;;;;;;;8.56;95.19;98355.02;131251;1253;106701;-73
2023/10/26 02:58:02;;;;;;;15.50;11.20;;;;;;;8.62;94.76;98345.80;131326;1253;107766;-73
2023/10/26 03:01:07;;;;;;;15.70;11.70;;;;;;;8.63;94.68;98341.84;131264;1250;106331;-73
2023/10/26 03:04:13;;;;;;;17.50;12.70;;;;;;;8.66;95.05;98332.63;131350;1248;107027;-73
2023/10/26 03:07:22;;;;;;;14.30;10.20;;;;;;;8.65;94.71;98336.37;131339;1251;107018;-73
2023/10/26 03:10:28;;;;;;;14.30;8.50;;;;;;;8.64;94.78;98335.80;131273;1251;106632;-73
2023/10/26 03:13:34;;;;;;;18.80;12.30;;;;;;;8.67;94.87;98321.52;131402;1251;107685;-73
2023/10/26 03:16:39;;;;;;;17.20;12.10;;;;;;;8.70;94.65;98316.50;131222;1253;107222;-73
2023/10/26 03:19:45;;;;;;;17.30;12.20;;;;;;;8.70;94.43;98311.91;131471;1251;108589;-73
2023/10/26 03:22:51;;;;;;;19.00;13.10;;;;;;;8.69;94.71;98311.91;131318;1253;107725;-74
2023/10/26 03:25:56;;;;;;;19.30;12.20;;;;;;;8.68;94.47;98306.01;131428;1248;108539;-74
2023/10/26 03:29:03;;;;;;;17.00;12.30;;;;;;;8.64;94.65;98310.84;131389;1248;108869;-75
2023/10/26 03:32:09;;;;;;;21.70;14.20;;;;;;;8.63;94.99;98304.73;131367;1251;108707;-74
2023/10/26 03:35:14;;;;;;;20.30;11.00;;;;;;;8.64;94.65;98299.44;131350;1254;107393;-75
2023/10/26 03:38:20;;;;;;;22.80;13.80;;;;;;;8.66;94.85;98293.57;131338;1252;106453;-74
2023/10/26 03:41:25;;;;;;;18.70;11.50;;;;;;;8.71;94.60;98289.71;131362;1251;108601;-74
2023/10/26 03:44:31;;;;;;;19.10;11.50;;;;;;;8.73;94.62;98289.55;131388;1254;108665;-74
2023/10/26 03:47:36;;;;;;;20.60;12.00;;;;;;;8.74;94.38;98282.39;131381;1251;108551;-74
2023/10/26 03:50:43;;;;;;;23.50;15.00;;;;;;;8.74;94.22;98273.52;131267;1251;107833;-74
2023/10/26 03:53:50;;;;;;;26.90;15.40;;;;;;;8.72;94.48;98275.16;131338;1251;106498;-74
2023/10/26 03:56:56;;;;;;;20.60;12.70;;;;;;;8.70;94.64;98273.10;131291;1251;106796;-75
2023/10/26 04:00:02;;;;;;;19.30;11.30;;;;;;;8.71;94.54;98270.98;131360;1253;108360;-74
2023/10/26 04:03:17;;;;;;;23.30;13.30;;;;;;;8.77;94.76;98263.06;131351;1250;107193;-74
2023/10/26 04:06:23;;;;;;;25.40;15.00;;;;;;;8.82;94.61;98261.14;131401;1248;108697;-74
2023/10/26 04:09:29;;;;;;;25.40;15.30;;;;;;;8.86;94.95;98257.25;131346;1248;108537;-74
2023/10/26 04:12:35;;;;;;;23.00;14.60;;;;;;;8.88;95.02;98254.33;131401;1251;106594;-74
2023/10/26 04:15:40;;;;;;;28.70;19.10;;;;;;;8.91;95.33;98251.53;131368;1255;109325;-74
2023/10/26 04:18:46;;;;;;;19.80;13.00;;;;;;;8.91;95.45;98253.45;131346;1251;106667;-74
2023/10/26 04:21:51;;;;;;;16.60;10.90;;;;;;;8.92;95.74;98249.49;131399;1248;107247;-72
2023/10/26 04:24:57;;;;;;;19.00;13.00;;;;;;;8.96;95.99;98245.35;131344;1248;107551;-72
2023/10/26 04:28:03;;;;;;;22.00;14.40;;;;;;;9.02;96.02;98244.41;131549;1253;108785;-74
2023/10/26 04:31:09;;;;;;;21.30;13.40;;;;;;;9.08;96.04;98241.23;131352;1255;107792;-74
2023/10/26 04:34:15;;;;;;;18.20;12.30;;;;;;;9.12;95.78;98233.61;131364;1252;108674;-74
2023/10/26 04:37:20;;;;;;;18.70;13.30;;;;;;;9.16;95.76;98229.38;131318;1253;108497;-76
2023/10/26 04:40:26;;;;;;;19.60;12.70;;;;;;;9.17;96.01;98224.14;131420;1251;108670;-74
2023/10/26 04:43:31;;;;;;;15.00;10.60;;;;;;;9.19;96.19;98220.75;135067;1250;107724;-75
2023/10/26 04:46:37;;;;;;;16.60;12.00;;;;;;;9.21;96.10;98217.55;135614;1249;108374;-75
2023/10/26 04:49:42;;;;;;;15.30;11.20;;;;;;;9.29;95.89;98217.18;135608;1249;108998;-75
2023/10/26 04:52:48;;;;;;;15.40;11.60;;;;;;;9.34;95.90;98212.21;135571;1248;108749;-76
2023/10/26 04:55:54;;;;;;;15.30;12.00;;;;;;;9.38;96.08;98208.85;132351;1251;107819;-74
2023/10/26 04:58:59;;;;;;;15.70;11.70;;;;;;;9.42;96.02;98205.18;131358;1248;106665;-74
2023/10/26 05:02:05;;;;;;;25.40;19.30;;;;;;;9.43;96.18;98207.20;131225;1254;108727;-75
2023/10/26 05:05:11;;;;;;;18.50;13.80;;;;;;;9.41;95.82;98214.68;131341;1253;106868;-75
2023/10/26 05:08:17;;;;;;;16.40;12.60;;;;;;;9.40;96.36;98220.62;131289;1251;108613;-74
2023/10/26 05:11:23;;;;;;;20.10;17.20;;;;;;;9.43;96.24;98228.13;131263;1248;106756;-75
2023/10/26 05:14:28;;;;;;;18.00;14.10;;;;;;;9.47;96.69;98220.89;131361;1251;106446;-74
2023/10/26 05:17:35;;;;;;;21.90;14.60;;;;;;;9.50;96.36;98216.58;131279;1251;106554;-74
2023/10/26 05:20:41;;;;;;;18.90;13.90;;;;;;;9.53;96.48;98206.52;131233;1252;108209;-74
2023/10/26 05:23:47;;;;;;;15.00;11.30;;;;;;;9.53;96.56;98200.25;131249;1260;107758;-74
2023/10/26 05:26:53;;;;;;;15.50;10.80;;;;;;;9.52;96.65;98200.86;131223;1253;106332;-75
2023/10/26 05:29:59;;;;;;;17.50;13.10;;;;;;;9.55;96.92;98198.73;131311;1253;107662;-74
2023/10/26 05:33:05;;;;;;;18.70;13.10;;;;;;;9.57;96.80;98185.98;131346;1253;108767;-74
2023/10/26 05:36:11;;;;;;;18.60;14.10;;;;;;;9.61;96.81;98182.55;131311;1260;107662;-74
2023/10/26 05:39:16;;;;;;;17.90;13.20;;;;;;;9.63;96.81;98183.50;131301;1253;107186;-74
2023/10/26 05:42:22;;;;;;;17.20;12.50;;;;;;;9.65;96.88;98182.52;131290;1252;107779;-74
2023/10/26 05:45:29;;;;;;;15.80;11.10;;;;;;;9.66;97.03;98191.63;131260;1253;105862;-74
2023/10/26 05:48:35;;;;;;;17.40;13.10;;;;;;;9.71;97.09;98201.15;131272;1253;107169;-74
2023/10/26 05:51:40;;;;;;;56.50;30.60;;;;;;;9.76;97.17;98197.08;131304;1253;108577;-74
2023/10/26 05:54:46;;;;;;;26.50;17.00;;;;;;;9.81;96.97;98187.55;131365;1253;106461;-74
2023/10/26 05:57:52;;;;;;;20.80;14.90;;;;;;;9.85;97.06;98187.27;131379;1254;108659;-75
2023/10/26 06:00:58;;;;;;;18.40;12.90;;;;;;;9.88;96.98;98174.06;131262;1248;106416;-75
2023/10/26 06:04:03;;;;;;;15.10;11.30;;;;;;;9.91;97.31;98164.23;131243;1262;108387;-74
2023/10/26 06:07:09;;;;;;;25.60;15.20;;;;;;;9.95;97.09;98157.02;131239;1253;106984;-74
2023/10/26 06:10:14;;;;;;;24.40;15.70;;;;;;;9.99;97.27;98155.90;131274;1251;108429;-74
2023/10/26 06:13:20;;;;;;;27.20;17.90;;;;;;;10.07;97.45;98155.95;131265;1253;108732;-74
2023/10/26 06:16:26;;;;;;;29.40;19.30;;;;;;;10.12;97.51;98156.73;131315;1251;107776;-75
2023/10/26 06:19:33;;;;;;;28.90;17.70;;;;;;;10.14;97.57;98154.13;131242;1254;107967;-74
2023/10/26 06:22:39;;;;;;;26.30;17.40;;;;;;;10.17;97.27;98154.66;131265;1251;106489;-74
2023/10/26 06:25:45;;;;;;;30.60;20.40;;;;;;;10.21;97.61;98158.77;131251;1255;107463;-74
2023/10/26 06:28:50;;;;;;;28.40;20.30;;;;;;;10.27;97.64;98162.27;131307;1253;107733;-75
2023/10/26 06:31:56;;;;;;;27.00;19.50;;;;;;;10.32;97.68;98168.16;131318;1252;106187;-75
2023/10/26 06:35:01;;;;;;;28.40;20.50;;;;;;;10.38;97.49;98170.92;131343;1252;107682;-75
2023/10/26 06:38:07;;;;;;;22.00;16.00;;;;;;;10.43;97.70;98166.79;131301;1253;109408;-75
2023/10/26 06:41:13;;;;;;;22.90;15.00;;;;;;;10.45;97.81;98172.20;131302;1252;108581;-74
2023/10/26 06:44:18;;;;;;;22.30;16.30;;;;;;;10.45;97.65;98177.24;131324;1253;107666;-74
2023/10/26 06:47:24;;;;;;;19.40;13.40;;;;;;;10.51;98.01;98169.38;131277;1253;107680;-75
2023/10/26 06:50:29;;;;;;;27.00;20.50;;;;;;;10.57;97.93;98169.67;131298;1263;108546;-75
2023/10/26 06:53:35;;;;;;;23.80;17.20;;;;;;;10.61;98.01;98164.71;131233;1253;107767;-75
2023/10/26 06:56:40;;;;;;;21.20;13.40;;;;;;;10.64;98.01;98158.11;131212;1254;108380;-74
2023/10/26 06:59:46;;;;;;;18.40;12.80;;;;;;;10.66;97.97;98153.91;131302;1253;107794;-74
2023/10/26 07:02:51;;;;;;;20.80;14.30;;;;;;;10.71;98.29;98146.98;131330;1251;106898;-74
2023/10/26 07:06:00;;;;;;;20.90;14.20;;;;;;;10.80;98.51;98142.09;131313;1251;107636;-75
2023/10/26 07:09:06;;;;;;;22.10;15.00;;;;;;;10.87;98.21;98138.18;131267;1254;106188;-75
2023/10/26 07:12:12;;;;;;;21.50;14.90;;;;;;;10.96;98.22;98140.64;131264;1253;108559;-76
2023/10/26 07:15:18;;;;;;;20.70;14.60;;;;;;;11.01;98.27;98143.17;131211;1253;107592;-75
2023/10/26 07:18:23;;;;;;;17.80;12.30;;;;;;;11.06;98.54;98141.94;131271;1253;108738;-74
2023/10/26 07:21:30;;;;;;;19.60;14.20;;;;;;;11.13;98.60;98134.25;131253;1248;107550;-75
2023/10/26 07:24:36;;;;;;;22.60;16.60;;;;;;;11.20;98.48;98123.77;131245;1248;107547;-75
2023/10/26 07:27:42;;;;;;;27.10;18.20;;;;;;;11.31;98.56;98121.14;131245;1253;106559;-75
2023/10/26 07:30:50;;;;;;;24.40;17.60;;;;;;;11.41;98.50;98121.27;131300;1248;106580;-74
2023/10/26 07:33:56;;;;;;;25.20;18.60;;;;;;;11.47;98.36;98125.73;131326;1254;107990;-75
2023/10/26 07:37:02;;;;;;;21.00;14.50;;;;;;;11.48;98.26;98121.94;131298;1253;106969;-76
2023/10/26 07:40:09;;;;;;;20.10;14.50;;;;;;;11.50;98.25;98112.48;131224;1253;108759;-75
2023/10/26 07:43:15;;;;;;;22.40;15.70;;;;;;;11.52;98.42;98106.31;131295;1251;107640;-75
2023/10/26 07:46:21;;;;;;;23.50;16.90;;;;;;;11.56;98.34;98101.23;131271;1251;108145;-74
2023/10/26 07:49:27;;;;;;;26.40;17.70;;;;;;;11.64;98.52;98097.76;131180;1251;107738;-75
2023/10/26 07:52:32;;;;;;;27.50;17.20;;;;;;;11.70;98.22;98095.27;131248;1252;108711;-74
2023/10/26 07:55:38;;;;;;;25.40;17.10;;;;;;;11.76;98.49;98096.70;131262;1251;108907;-75
2023/10/26 07:58:44;;;;;;;30.60;20.10;;;;;;;11.83;98.41;98098.98;131303;1253;108613;-75
2023/10/26 08:01:49;;;;;;;32.90;23.60;;;;;;;11.89;98.59;98098.04;131219;1253;107867;-75
2023/10/26 08:04:55;;;;;;;29.20;20.20;;;;;;;11.91;98.42;98098.02;131277;1253;106438;-76
2023/10/26 08:08:01;;;;;;;30.20;19.60;;;;;;;11.94;98.36;98094.13;131253;1253;108523;-76
2023/10/26 08:11:11;;;;;;;26.60;18.20;;;;;;;11.97;98.53;98096.02;131247;1253;106608;-76
2023/10/26 08:14:16;;;;;;;28.10;16.90;;;;;;;12.02;98.46;98083.46;131313;1253;108577;-76
2023/10/26 08:17:22;;;;;;;24.00;16.40;;;;;;;12.12;98.55;98081.17;131260;1253;108582;-76
2023/10/26 08:20:27;;;;;;;24.00;15.40;;;;;;;12.25;98.64;98073.77;131254;1253;108744;-76
2023/10/26 08:23:33;;;;;;;24.10;17.20;;;;;;;12.36;98.58;98077.30;131264;1253;107627;-75
2023/10/26 08:26:39;;;;;;;20.90;15.40;;;;;;;12.47;98.44;98074.73;131298;1251;105690;-76
2023/10/26 08:29:45;;;;;;;22.00;16.30;;;;;;;12.56;98.41;98076.54;131369;1261;107988;-76
2023/10/26 08:32:53;;;;;;;26.10;18.50;;;;;;;12.65;98.37;98070.85;131325;1248;106783;-75
2023/10/26 08:35:59;;;;;;;23.60;15.40;;;;;;;12.73;98.13;98064.95;131250;1253;108364;-76
2023/10/26 08:39:07;;;;;;;20.60;14.80;;;;;;;12.80;98.22;98058.17;131334;1253;107588;-75
2023/10/26 08:42:12;;;;;;;20.30;15.60;;;;;;;12.91;98.49;98064.66;131310;1253;108215;-76
2023/10/26 08:45:26;;;;;;;19.00;14.40;;;;;;;13.03;98.26;98068.23;131290;1252;108609;-75
2023/10/26 08:48:38;;;;;;;20.00;15.60;;;;;;;13.12;98.32;98068.55;131312;1254;107844;-75
2023/10/26 08:51:45;;;;;;;20.10;13.90;;;;;;;13.21;98.30;98066.39;131240;1248;106951;-75
2023/10/26 08:54:51;;;;;;;19.50;14.90;;;;;;;13.25;98.11;98064.44;131220;1251;107601;-75
2023/10/26 08:58:01;;;;;;;18.20;14.00;;;;;;;13.35;98.17;98062.49;131253;1255;107081;-76
2023/10/26 09:01:07;;;;;;;16.50;14.20;;;;;;;13.48;98.02;98058.92;131284;1249;107698;-75
2023/10/26 09:04:14;;;;;;;17.90;13.30;;;;;;;13.57;97.81;98058.10;131218;1254;106797;-76
2023/10/26 09:07:28;;;;;;;20.00;17.00;;;;;;;13.63;97.70;98057.32;131256;1260;106611;-75
2023/10/26 09:10:36;;;;;;;14.90;12.60;;;;;;;13.63;97.50;98059.83;131255;1254;108381;-75
2023/10/26 09:13:41;;;;;;;17.00;13.30;;;;;;;13.55;97.36;98061.55;131273;1251;107738;-75
2023/10/26 09:16:48;;;;;;;15.90;12.00;;;;;;;13.45;97.12;98057.35;131175;1261;106664;-75
2023/10/26 09:19:54;;;;;;;14.40;12.10;;;;;;;13.38;97.16;98062.83;131242;1249;108724;-76
2023/10/26 09:23:00;;;;;;;13.90;12.00;;;;;;;13.31;97.10;98069.75;131240;1261;108402;-76
2023/10/26 09:26:07;;;;;;;17.60;13.90;;;;;;;13.27;97.23;98067.64;131207;1253;107779;-76
2023/10/26 09:29:13;;;;;;;15.40;11.60;;;;;;;13.28;97.06;98067.63;131337;1248;106689;-75
2023/10/26 09:32:19;;;;;;;12.80;10.60;;;;;;;13.29;97.15;98063.02;131245;1248;107365;-75
2023/10/26 09:35:32;;;;;;;12.50;10.10;;;;;;;13.27;97.06;98057.80;131236;1253;107703;-76
2023/10/26 09:38:38;;;;;;;15.50;10.70;;;;;;;13.26;96.87;98050.23;131319;1251;107671;-75
2023/10/26 09:41:44;;;;;;;13.00;10.50;;;;;;;13.27;96.95;98050.40;131257;1251;107111;-75
2023/10/26 09:44:51;;;;;;;13.30;10.90;;;;;;;13.29;96.72;98051.98;131314;1251;108683;-75
2023/10/26 09:47:57;;;;;;;14.40;11.80;;;;;;;13.24;96.84;98047.10;131308;1253;107894;-75
2023/10/26 09:51:04;;;;;;;15.70;12.50;;;;;;;13.19;96.85;98044.36;131342;1253;106661;-75
2023/10/26 09:54:11;;;;;;;17.70;13.30;;;;;;;13.12;96.83;98040.91;131255;1254;106797;-75
2023/10/26 09:57:23;;;;;;;40.60;29.00;;;;;;;13.08;96.97;98036.79;131253;1253;108376;-75
2023/10/26 10:00:33;;;;;;;22.80;17.20;;;;;;;13.06;96.72;98039.30;131264;1254;107784;-75
2023/10/26 10:03:46;;;;;;;15.70;12.30;;;;;;;13.05;96.73;98041.55;131298;1251;107551;-75
2023/10/26 10:06:54;;;;;;;16.60;12.50;;;;;;;13.05;96.87;98036.36;131254;1248;106555;-75
2023/10/26 10:10:10;;;;;;;15.70;11.60;;;;;;;13.06;96.68;98036.23;131267;1254;108421;-76
2023/10/26 10:13:38;;;;;;;17.50;12.80;;;;;;;13.06;96.97;98032.45;131363;1253;105852;-75
2023/10/26 10:16:53;;;;;;;15.70;10.90;;;;;;;13.08;96.78;98026.00;131188;1261;107468;-75
2023/10/26 10:20:29;;;;;;;21.50;17.80;;;;;;;13.09;96.63;98023.04;131236;1257;106573;-77
2023/10/26 10:23:39;;;;;;;18.90;13.40;;;;;;;13.09;96.77;98016.89;131261;1254;108346;-75
2023/10/26 10:27:11;;;;;;;17.80;15.00;;;;;;;13.12;96.80;98014.25;131219;1253;107915;-75
2023/10/26 10:30:21;;;;;;;15.80;12.70;;;;;;;13.15;96.76;98010.80;131388;1253;108596;-75
2023/10/26 10:33:28;;;;;;;16.50;13.00;;;;;;;13.15;96.76;98003.84;131198;1251;106556;-75
2023/10/26 10:37:13;;;;;;;16.50;11.60;;;;;;;13.15;96.82;98001.59;131297;1261;108691;-75
2023/10/26 10:40:20;;;;;;;15.20;11.30;;;;;;;13.17;97.05;97998.79;131314;1254;106450;-75
2023/10/26 10:43:34;;;;;;;14.90;11.10;;;;;;;13.18;97.07;97998.89;131158;1257;188322;-75
2023/10/26 10:46:39;;;;;;;16.70;11.60;;;;;;;13.21;97.01;97999.23;131192;1251;108509;-75
2023/10/26 10:49:45;;;;;;;17.80;13.00;;;;;;;13.22;96.89;97995.02;131242;1258;107521;-75
2023/10/26 10:52:53;;;;;;;15.40;12.10;;;;;;;13.20;96.74;97993.47;131228;1251;108571;-75
2023/10/26 10:55:59;;;;;;;15.50;11.50;;;;;;;13.15;97.00;97993.77;131361;1253;108820;-75
2023/10/26 10:59:17;;;;;;;15.20;11.90;;;;;;;13.16;97.30;97993.37;131230;1261;108188;-75
2023/10/26 11:02:23;;;;;;;16.40;12.40;;;;;;;13.17;97.21;97990.77;131354;1252;108532;-75
2023/10/26 11:05:41;;;;;;;18.60;12.40;;;;;;;13.21;97.33;97986.80;131246;1254;108899;-75
2023/10/26 11:08:47;;;;;;;18.20;12.90;;;;;;;13.24;97.22;97985.92;131267;1253;108515;-76
2023/10/26 11:11:52;;;;;;;18.40;11.60;;;;;;;13.27;97.34;97985.90;131218;1254;107712;-75
2023/10/26 11:14:59;;;;;;;15.10;11.30;;;;;;;13.28;97.16;97986.78;131246;1261;108652;-76
2023/10/26 11:18:08;;;;;;;19.50;12.80;;;;;;;13.31;97.48;97987.70;131243;1254;108376;-76
2023/10/26 11:21:18;;;;;;;16.70;12.70;;;;;;;13.37;97.41;97985.08;131252;1253;108623;-75
2023/10/26 11:24:33;;;;;;;18.80;14.60;;;;;;;13.42;97.37;97981.81;131281;1251;108531;-77
2023/10/26 11:27:47;;;;;;;17.90;13.70;;;;;;;13.45;97.32;97979.63;131266;1248;107879;-75
2023/10/26 11:30:55;;;;;;;16.80;12.10;;;;;;;13.44;97.21;97978.35;131313;1248;107658;-75
2023/10/26 11:34:06;;;;;;;16.50;11.40;;;;;;;13.42;97.23;97979.98;131250;1254;107874;-76
2023/10/26 11:37:12;;;;;;;15.80;11.60;;;;;;;13.42;97.54;97978.77;131366;1254;106788;-75
2023/10/26 11:40:18;;;;;;;16.50;11.50;;;;;;;13.40;97.47;97980.44;131330;1253;107761;-75
2023/10/26 11:43:34;;;;;;;16.10;12.10;;;;;;;13.39;97.41;97982.64;131347;1262;107723;-76
2023/10/26 11:46:40;;;;;;;18.10;12.60;;;;;;;13.35;97.53;97983.27;131325;1253;107649;-75
2023/10/26 11:49:47;;;;;;;18.90;12.60;;;;;;;13.29;97.55;97981.58;131336;1253;107644;-75
2023/10/26 11:52:54;;;;;;;20.10;14.20;;;;;;;13.27;97.48;97978.67;131359;1261;107380;-76
2023/10/26 11:56:01;;;;;;;20.20;15.50;;;;;;;13.27;97.85;97978.67;131372;1252;108472;-76
2023/10/26 11:59:06;;;;;;;21.90;15.70;;;;;;;13.27;97.91;97974.54;131347;1253;108352;-75
2023/10/26 12:02:12;;;;;;;23.20;17.20;;;;;;;13.29;97.75;97976.49;131288;1253;107578;-76
2023/10/26 12:05:19;;;;;;;19.10;14.30;;;;;;;13.32;98.12;97976.53;131317;1248;107795;-75
2023/10/26 12:08:25;;;;;;;16.20;12.00;;;;;;;13.34;98.01;97972.51;131265;1254;106335;-75
2023/10/26 12:11:30;;;;;;;16.20;11.50;;;;;;;13.33;97.98;97976.56;131271;1253;106673;-76
2023/10/26 12:14:36;;;;;;;14.60;11.60;;;;;;;13.31;98.23;97970.04;131361;1253;106684;-76
2023/10/26 12:17:42;;;;;;;16.40;11.30;;;;;;;13.34;98.10;97967.87;131239;1253;105594;-75
2023/10/26 12:20:47;;;;;;;14.70;10.60;;;;;;;13.35;98.19;97964.09;131319;1251;108562;-76
2023/10/26 12:23:53;;;;;;;13.70;10.20;;;;;;;13.38;98.37;97966.09;131279;1253;108562;-75
2023/10/26 12:26:59;;;;;;;10.90;7.60;;;;;;;13.35;98.21;97964.89;131331;1263;106907;-76
2023/10/26 12:30:06;;;;;;;10.40;7.40;;;;;;;13.29;98.39;97968.23;131328;1263;107791;-76
2023/10/26 12:33:12;;;;;;;9.00;6.40;;;;;;;13.29;98.73;97970.98;131423;1254;107541;-76
2023/10/26 12:36:17;;;;;;;7.30;5.40;;;;;;;13.31;98.76;97970.13;131307;1253;107081;-76
2023/10/26 12:39:23;;;;;;;6.60;5.20;;;;;;;13.35;98.76;97974.35;131405;1253;107702;-75
2023/10/26 12:42:28;;;;;;;5.70;4.20;;;;;;;13.36;98.72;97973.48;131253;1261;106604;-76
2023/10/26 12:45:34;;;;;;;7.50;3.90;;;;;;;13.36;98.63;97978.84;131241;1254;108633;-76
2023/10/26 12:48:39;;;;;;;5.10;3.60;;;;;;;13.33;98.48;97973.52;131302;1252;107835;-76
2023/10/26 12:51:46;;;;;;;6.70;3.80;;;;;;;13.33;98.77;97973.56;131272;1251;107863;-76
2023/10/26 12:54:52;;;;;;;5.00;4.30;;;;;;;13.34;98.85;97975.67;131336;1253;107691;-76
2023/10/26 12:57:58;;;;;;;5.10;4.10;;;;;;;13.34;98.74;97980.71;131249;1253;109190;-76
2023/10/26 13:01:04;;;;;;;117.40;62.20;;;;;;;13.33;98.89;97977.31;131247;1261;107776;-76
2023/10/26 13:04:10;;;;;;;48.00;26.60;;;;;;;13.33;98.97;97980.96;131254;1261;107801;-76
2023/10/26 13:07:15;;;;;;;164.20;79.20;;;;;;;13.39;99.03;97980.98;131297;1248;108015;-76
2023/10/26 13:10:21;;;;;;;234.20;112.40;;;;;;;13.45;98.97;97982.13;131283;1253;108627;-75
2023/10/26 13:13:26;;;;;;;55.50;28.70;;;;;;;13.50;99.01;97982.31;131342;1248;107695;-76
2023/10/26 13:16:32;;;;;;;447.90;224.40;;;;;;;13.54;98.91;97981.88;131297;1254;108341;-76
2023/10/26 13:19:38;;;;;;;163.10;78.20;;;;;;;13.60;99.01;97979.89;131200;1254;108654;-76
2023/10/26 13:22:43;;;;;;;31.20;17.10;;;;;;;13.68;99.12;97981.10;131306;1261;108747;-76
2023/10/26 13:25:48;;;;;;;24.00;19.00;;;;;;;13.75;99.15;97980.02;131259;1254;108452;-76
2023/10/26 13:28:54;;;;;;;86.10;45.00;;;;;;;13.79;98.91;97981.98;131249;1253;107457;-77
2023/10/26 13:32:00;;;;;;;148.00;81.00;;;;;;;13.77;98.85;97988.85;131282;1251;108468;-76
2023/10/26 13:35:06;;;;;;;131.60;70.20;;;;;;;13.73;98.90;97986.50;131178;1254;107270;-76
2023/10/26 13:38:13;;;;;;;531.00;278.10;;;;;;;13.69;98.93;97988.27;131290;1253;108606;-75
2023/10/26 13:41:23;;;;;;;230.40;99.70;;;;;;;13.65;98.94;97988.12;131365;1254;108700;-77
2023/10/26 13:44:28;;;;;;;903.90;447.10;;;;;;;13.65;99.01;97993.48;131302;1248;107613;-76
2023/10/26 13:47:34;;;;;;;730.40;294.40;;;;;;;13.61;99.09;97992.25;131311;1252;106473;-75
2023/10/26 13:50:40;;;;;;;447.80;161.30;;;;;;;13.56;98.78;97993.61;131363;1254;106756;-76
2023/10/26 13:53:46;;;;;;;431.40;161.10;;;;;;;13.52;99.04;97993.66;131324;1253;106851;-76
2023/10/26 13:56:52;;;;;;;725.20;304.20;;;;;;;13.48;99.16;97991.95;131385;1251;108520;-75
2023/10/26 13:59:58;;;;;;;1345.90;544.00;;;;;;;13.46;99.27;97996.30;131395;1251;106630;-76
2023/10/26 14:03:04;;;;;;;1264.30;492.20;;;;;;;13.46;99.32;98003.59;131426;1253;108738;-76